sensor_id;sensor_type;location;lat;lon;timestamp;P1;durP1;ratioP1;P2;durP2;ratioP2
42832;SDS011;64089;51.478;5.692;2023-11-21T00:01:57;14.95;;;7.60;;
42832;SDS011;64089;51.478;5.692;2023-11-21T00:04:23;23.27;;;8.55;;
42832;SDS011;64089;51.478;5.692;2023-11-21T00:06:49;24.48;;;8.63;;
42832;SDS011;64089;51.478;5.692;2023-11-21T00:09:15;21.65;;;8.18;;
42832;SDS011;64089;51.478;5.692;2023-11-21T00:11:42;25.02;;;9.45;;
42832;SDS011;64089;51.478;5.692;2023-11-21T00:14:09;19.70;;;9.18;;
42832;SDS011;64089;51.478;5.692;2023-11-21T00:16:35;20.25;;;8.57;;
42832;SDS011;64089;51.478;5.692;2023-11-21T00:19:01;23.45;;;8.27;;
42832;SDS011;64089;51.478;5.692;2023-11-21T00:21:26;21.65;;;7.78;;
42832;SDS011;64089;51.478;5.692;2023-11-21T00:23:52;23.25;;;8.27;;
42832;SDS011;64089;51.478;5.692;2023-11-21T00:26:18;21.42;;;8.00;;
42832;SDS011;64089;51.478;5.692;2023-11-21T00:28:43;22.92;;;8.48;;
42832;SDS011;64089;51.478;5.692;2023-11-21T00:31:09;15.85;;;8.20;;
42832;SDS011;64089;51.478;5.692;2023-11-21T00:33:34;27.95;;;7.47;;
42832;SDS011;64089;51.478;5.692;2023-11-21T00:36:00;24.40;;;7.28;;
42832;SDS011;64089;51.478;5.692;2023-11-21T00:38:26;17.85;;;7.15;;
42832;SDS011;64089;51.478;5.692;2023-11-21T00:40:52;14.13;;;6.38;;
42832;SDS011;64089;51.478;5.692;2023-11-21T00:43:21;11.45;;;6.40;;
42832;SDS011;64089;51.478;5.692;2023-11-21T00:45:49;14.48;;;6.40;;
42832;SDS011;64089;51.478;5.692;2023-11-21T00:48:15;16.83;;;6.72;;
42832;SDS011;64089;51.478;5.692;2023-11-21T00:50:40;11.77;;;7.32;;
42832;SDS011;64089;51.478;5.692;2023-11-21T00:53:06;12.80;;;6.45;;
42832;SDS011;64089;51.478;5.692;2023-11-21T00:55:32;17.15;;;6.57;;
42832;SDS011;64089;51.478;5.692;2023-11-21T00:57:58;13.57;;;6.88;;
42832;SDS011;64089;51.478;5.692;2023-11-21T01:00:24;13.32;;;6.95;;
42832;SDS011;64089;51.478;5.692;2023-11-21T01:02:50;12.38;;;6.15;;
42832;SDS011;64089;51.478;5.692;2023-11-21T01:05:16;19.70;;;7.07;;
42832;SDS011;64089;51.478;5.692;2023-11-21T01:07:42;14.68;;;7.53;;
42832;SDS011;64089;51.478;5.692;2023-11-21T01:10:08;15.75;;;7.50;;
42832;SDS011;64089;51.478;5.692;2023-11-21T01:12:35;15.23;;;7.18;;
42832;SDS011;64089;51.478;5.692;2023-11-21T01:15:02;18.33;;;7.53;;
42832;SDS011;64089;51.478;5.692;2023-11-21T01:17:36;19.60;;;7.97;;
42832;SDS011;64089;51.478;5.692;2023-11-21T01:20:03;16.73;;;6.88;;
42832;SDS011;64089;51.478;5.692;2023-11-21T01:22:35;17.95;;;7.85;;
42832;SDS011;64089;51.478;5.692;2023-11-21T01:25:01;18.27;;;8.13;;
42832;SDS011;64089;51.478;5.692;2023-11-21T01:27:32;17.42;;;7.85;;
42832;SDS011;64089;51.478;5.692;2023-11-21T01:29:59;14.15;;;6.68;;
42832;SDS011;64089;51.478;5.692;2023-11-21T01:32:24;17.23;;;6.97;;
42832;SDS011;64089;51.478;5.692;2023-11-21T01:34:50;16.77;;;7.78;;
42832;SDS011;64089;51.478;5.692;2023-11-21T01:37:16;19.05;;;7.85;;
42832;SDS011;64089;51.478;5.692;2023-11-21T01:39:42;18.77;;;7.47;;
42832;SDS011;64089;51.478;5.692;2023-11-21T01:42:09;20.58;;;8.15;;
42832;SDS011;64089;51.478;5.692;2023-11-21T01:44:34;21.55;;;7.68;;
42832;SDS011;64089;51.478;5.692;2023-11-21T01:47:00;15.25;;;6.80;;
42832;SDS011;64089;51.478;5.692;2023-11-21T01:49:30;15.13;;;6.88;;
42832;SDS011;64089;51.478;5.692;2023-11-21T01:51:58;17.17;;;8.38;;
42832;SDS011;64089;51.478;5.692;2023-11-21T01:54:24;15.60;;;7.40;;
42832;SDS011;64089;51.478;5.692;2023-11-21T01:56:50;16.35;;;7.55;;
42832;SDS011;64089;51.478;5.692;2023-11-21T01:59:20;17.02;;;6.85;;
42832;SDS011;64089;51.478;5.692;2023-11-21T02:01:47;13.63;;;7.03;;
42832;SDS011;64089;51.478;5.692;2023-11-21T02:04:13;19.42;;;8.10;;
42832;SDS011;64089;51.478;5.692;2023-11-21T02:06:39;15.18;;;7.68;;
42832;SDS011;64089;51.478;5.692;2023-11-21T02:09:05;15.02;;;7.55;;
42832;SDS011;64089;51.478;5.692;2023-11-21T02:11:31;20.35;;;7.90;;
42832;SDS011;64089;51.478;5.692;2023-11-21T02:13:59;17.80;;;7.35;;
42832;SDS011;64089;51.478;5.692;2023-11-21T02:16:25;17.90;;;8.63;;
42832;SDS011;64089;51.478;5.692;2023-11-21T02:18:52;17.48;;;8.52;;
42832;SDS011;64089;51.478;5.692;2023-11-21T02:21:18;19.05;;;8.55;;
42832;SDS011;64089;51.478;5.692;2023-11-21T02:23:44;20.02;;;8.93;;
42832;SDS011;64089;51.478;5.692;2023-11-21T02:26:11;20.27;;;8.68;;
42832;SDS011;64089;51.478;5.692;2023-11-21T02:28:38;20.27;;;9.00;;
42832;SDS011;64089;51.478;5.692;2023-11-21T02:31:05;18.73;;;8.57;;
42832;SDS011;64089;51.478;5.692;2023-11-21T02:33:32;21.67;;;8.73;;
42832;SDS011;64089;51.478;5.692;2023-11-21T02:35:59;16.20;;;8.00;;
42832;SDS011;64089;51.478;5.692;2023-11-21T02:38:25;16.38;;;7.57;;
42832;SDS011;64089;51.478;5.692;2023-11-21T02:40:51;26.20;;;9.48;;
42832;SDS011;64089;51.478;5.692;2023-11-21T02:43:16;25.25;;;9.40;;
42832;SDS011;64089;51.478;5.692;2023-11-21T02:45:42;19.67;;;8.35;;
42832;SDS011;64089;51.478;5.692;2023-11-21T02:48:08;25.45;;;10.25;;
42832;SDS011;64089;51.478;5.692;2023-11-21T02:50:34;20.80;;;8.10;;
42832;SDS011;64089;51.478;5.692;2023-11-21T02:53:00;23.85;;;9.48;;
42832;SDS011;64089;51.478;5.692;2023-11-21T02:55:26;21.05;;;9.30;;
42832;SDS011;64089;51.478;5.692;2023-11-21T02:57:53;22.67;;;9.57;;
42832;SDS011;64089;51.478;5.692;2023-11-21T03:00:21;23.65;;;9.55;;
42832;SDS011;64089;51.478;5.692;2023-11-21T03:02:49;19.67;;;8.48;;
42832;SDS011;64089;51.478;5.692;2023-11-21T03:05:14;25.92;;;10.35;;
42832;SDS011;64089;51.478;5.692;2023-11-21T03:07:40;20.48;;;8.95;;
42832;SDS011;64089;51.478;5.692;2023-11-21T03:10:06;20.75;;;8.80;;
42832;SDS011;64089;51.478;5.692;2023-11-21T03:12:36;23.80;;;8.63;;
42832;SDS011;64089;51.478;5.692;2023-11-21T03:15:03;20.85;;;8.77;;
42832;SDS011;64089;51.478;5.692;2023-11-21T03:17:30;21.73;;;10.15;;
42832;SDS011;64089;51.478;5.692;2023-11-21T03:19:56;17.50;;;8.85;;
42832;SDS011;64089;51.478;5.692;2023-11-21T03:22:22;26.00;;;9.48;;
42832;SDS011;64089;51.478;5.692;2023-11-21T03:24:48;17.83;;;8.77;;
42832;SDS011;64089;51.478;5.692;2023-11-21T03:27:14;17.92;;;8.73;;
42832;SDS011;64089;51.478;5.692;2023-11-21T03:29:39;22.75;;;9.43;;
42832;SDS011;64089;51.478;5.692;2023-11-21T03:32:08;23.13;;;8.55;;
42832;SDS011;64089;51.478;5.692;2023-11-21T03:34:34;21.98;;;9.13;;
42832;SDS011;64089;51.478;5.692;2023-11-21T03:37:00;20.20;;;9.48;;
42832;SDS011;64089;51.478;5.692;2023-11-21T03:39:25;22.75;;;9.50;;
42832;SDS011;64089;51.478;5.692;2023-11-21T03:41:51;20.83;;;10.25;;
42832;SDS011;64089;51.478;5.692;2023-11-21T03:44:17;24.27;;;9.93;;
42832;SDS011;64089;51.478;5.692;2023-11-21T03:46:42;20.92;;;10.30;;
42832;SDS011;64089;51.478;5.692;2023-11-21T03:49:09;20.38;;;9.13;;
42832;SDS011;64089;51.478;5.692;2023-11-21T03:51:35;20.80;;;8.82;;
42832;SDS011;64089;51.478;5.692;2023-11-21T03:54:01;21.05;;;9.93;;
42832;SDS011;64089;51.478;5.692;2023-11-21T03:56:28;19.50;;;9.38;;
42832;SDS011;64089;51.478;5.692;2023-11-21T03:58:53;18.70;;;9.70;;
42832;SDS011;64089;51.478;5.692;2023-11-21T04:01:20;14.43;;;8.57;;
42832;SDS011;64089;51.478;5.692;2023-11-21T04:03:46;21.60;;;8.30;;
42832;SDS011;64089;51.478;5.692;2023-11-21T04:06:12;30.02;;;9.65;;
42832;SDS011;64089;51.478;5.692;2023-11-21T04:08:38;18.15;;;8.57;;
42832;SDS011;64089;51.478;5.692;2023-11-21T04:11:03;16.45;;;9.63;;
42832;SDS011;64089;51.478;5.692;2023-11-21T04:13:29;15.50;;;7.82;;
42832;SDS011;64089;51.478;5.692;2023-11-21T04:15:55;18.80;;;9.70;;
42832;SDS011;64089;51.478;5.692;2023-11-21T04:18:21;26.75;;;10.05;;
42832;SDS011;64089;51.478;5.692;2023-11-21T04:20:48;21.08;;;9.35;;
42832;SDS011;64089;51.478;5.692;2023-11-21T04:23:15;24.25;;;9.32;;
42832;SDS011;64089;51.478;5.692;2023-11-21T04:25:41;21.17;;;9.38;;
42832;SDS011;64089;51.478;5.692;2023-11-21T04:28:07;23.10;;;10.32;;
42832;SDS011;64089;51.478;5.692;2023-11-21T04:30:33;19.38;;;8.70;;
42832;SDS011;64089;51.478;5.692;2023-11-21T04:32:58;25.85;;;9.05;;
42832;SDS011;64089;51.478;5.692;2023-11-21T04:35:24;22.67;;;9.75;;
42832;SDS011;64089;51.478;5.692;2023-11-21T04:37:50;23.05;;;9.50;;
42832;SDS011;64089;51.478;5.692;2023-11-21T04:40:16;19.00;;;8.95;;
42832;SDS011;64089;51.478;5.692;2023-11-21T04:42:42;21.20;;;9.98;;
42832;SDS011;64089;51.478;5.692;2023-11-21T04:45:07;18.88;;;9.50;;
42832;SDS011;64089;51.478;5.692;2023-11-21T04:47:34;19.13;;;9.77;;
42832;SDS011;64089;51.478;5.692;2023-11-21T04:50:01;23.17;;;8.93;;
42832;SDS011;64089;51.478;5.692;2023-11-21T04:52:28;18.15;;;9.18;;
42832;SDS011;64089;51.478;5.692;2023-11-21T04:54:54;19.20;;;8.80;;
42832;SDS011;64089;51.478;5.692;2023-11-21T04:57:20;23.95;;;9.95;;
42832;SDS011;64089;51.478;5.692;2023-11-21T04:59:46;25.58;;;10.65;;
42832;SDS011;64089;51.478;5.692;2023-11-21T05:02:13;21.67;;;9.38;;
42832;SDS011;64089;51.478;5.692;2023-11-21T05:04:39;18.00;;;8.52;;
42832;SDS011;64089;51.478;5.692;2023-11-21T05:07:04;22.98;;;9.52;;
42832;SDS011;64089;51.478;5.692;2023-11-21T05:09:33;20.92;;;8.68;;
42832;SDS011;64089;51.478;5.692;2023-11-21T05:11:59;18.42;;;8.90;;
42832;SDS011;64089;51.478;5.692;2023-11-21T05:14:25;22.00;;;9.10;;
42832;SDS011;64089;51.478;5.692;2023-11-21T05:16:50;17.23;;;8.35;;
42832;SDS011;64089;51.478;5.692;2023-11-21T05:19:17;21.70;;;9.40;;
42832;SDS011;64089;51.478;5.692;2023-11-21T05:21:42;18.52;;;8.82;;
42832;SDS011;64089;51.478;5.692;2023-11-21T05:24:08;17.63;;;8.90;;
42832;SDS011;64089;51.478;5.692;2023-11-21T05:26:34;21.85;;;8.27;;
42832;SDS011;64089;51.478;5.692;2023-11-21T05:29:00;25.65;;;9.18;;
42832;SDS011;64089;51.478;5.692;2023-11-21T05:31:25;20.35;;;8.73;;
42832;SDS011;64089;51.478;5.692;2023-11-21T05:33:52;19.92;;;8.77;;
42832;SDS011;64089;51.478;5.692;2023-11-21T05:36:18;19.25;;;8.73;;
42832;SDS011;64089;51.478;5.692;2023-11-21T05:38:43;20.35;;;9.00;;
42832;SDS011;64089;51.478;5.692;2023-11-21T05:41:09;18.00;;;8.50;;
42832;SDS011;64089;51.478;5.692;2023-11-21T05:43:38;19.30;;;9.00;;
42832;SDS011;64089;51.478;5.692;2023-11-21T05:46:04;19.92;;;9.18;;
42832;SDS011;64089;51.478;5.692;2023-11-21T05:48:32;19.58;;;9.20;;
42832;SDS011;64089;51.478;5.692;2023-11-21T05:50:57;17.30;;;8.30;;
42832;SDS011;64089;51.478;5.692;2023-11-21T05:53:24;19.35;;;9.32;;
42832;SDS011;64089;51.478;5.692;2023-11-21T05:55:50;18.10;;;9.00;;
42832;SDS011;64089;51.478;5.692;2023-11-21T05:58:15;19.67;;;8.60;;
42832;SDS011;64089;51.478;5.692;2023-11-21T06:00:41;21.88;;;10.57;;
42832;SDS011;64089;51.478;5.692;2023-11-21T06:03:06;20.52;;;9.75;;
42832;SDS011;64089;51.478;5.692;2023-11-21T06:05:33;22.20;;;9.23;;
42832;SDS011;64089;51.478;5.692;2023-11-21T06:07:58;17.77;;;9.68;;
42832;SDS011;64089;51.478;5.692;2023-11-21T06:10:25;18.60;;;9.27;;
42832;SDS011;64089;51.478;5.692;2023-11-21T06:12:51;17.40;;;10.35;;
42832;SDS011;64089;51.478;5.692;2023-11-21T06:15:17;20.13;;;9.98;;
42832;SDS011;64089;51.478;5.692;2023-11-21T06:17:45;17.42;;;8.73;;
42832;SDS011;64089;51.478;5.692;2023-11-21T06:20:14;18.85;;;8.57;;
42832;SDS011;64089;51.478;5.692;2023-11-21T06:22:41;15.18;;;8.40;;
42832;SDS011;64089;51.478;5.692;2023-11-21T06:25:08;20.95;;;9.70;;
42832;SDS011;64089;51.478;5.692;2023-11-21T06:27:36;22.05;;;9.93;;
42832;SDS011;64089;51.478;5.692;2023-11-21T06:30:05;19.10;;;8.52;;
42832;SDS011;64089;51.478;5.692;2023-11-21T06:32:33;19.67;;;9.02;;
42832;SDS011;64089;51.478;5.692;2023-11-21T06:34:59;17.27;;;8.55;;
42832;SDS011;64089;51.478;5.692;2023-11-21T06:37:26;19.20;;;9.18;;
42832;SDS011;64089;51.478;5.692;2023-11-21T06:39:52;22.58;;;9.68;;
42832;SDS011;64089;51.478;5.692;2023-11-21T06:42:18;25.55;;;10.85;;
42832;SDS011;64089;51.478;5.692;2023-11-21T06:44:47;19.65;;;9.63;;
42832;SDS011;64089;51.478;5.692;2023-11-21T06:47:21;25.02;;;9.85;;
42832;SDS011;64089;51.478;5.692;2023-11-21T06:49:49;22.88;;;9.07;;
42832;SDS011;64089;51.478;5.692;2023-11-21T06:52:15;19.13;;;8.75;;
42832;SDS011;64089;51.478;5.692;2023-11-21T06:54:41;18.85;;;8.88;;
42832;SDS011;64089;51.478;5.692;2023-11-21T06:57:06;27.70;;;9.52;;
42832;SDS011;64089;51.478;5.692;2023-11-21T06:59:32;20.90;;;8.98;;
42832;SDS011;64089;51.478;5.692;2023-11-21T07:01:58;20.48;;;8.80;;
42832;SDS011;64089;51.478;5.692;2023-11-21T07:04:24;24.00;;;10.43;;
42832;SDS011;64089;51.478;5.692;2023-11-21T07:06:53;26.58;;;10.45;;
42832;SDS011;64089;51.478;5.692;2023-11-21T07:09:19;24.70;;;9.88;;
42832;SDS011;64089;51.478;5.692;2023-11-21T07:11:47;22.23;;;9.60;;
42832;SDS011;64089;51.478;5.692;2023-11-21T07:14:13;26.52;;;9.48;;
42832;SDS011;64089;51.478;5.692;2023-11-21T07:16:39;34.60;;;10.93;;
42832;SDS011;64089;51.478;5.692;2023-11-21T07:19:08;23.38;;;10.13;;
42832;SDS011;64089;51.478;5.692;2023-11-21T07:21:34;28.13;;;10.13;;
42832;SDS011;64089;51.478;5.692;2023-11-21T07:24:00;24.65;;;10.40;;
42832;SDS011;64089;51.478;5.692;2023-11-21T07:26:27;25.10;;;10.63;;
42832;SDS011;64089;51.478;5.692;2023-11-21T07:28:53;29.45;;;10.43;;
42832;SDS011;64089;51.478;5.692;2023-11-21T07:31:19;21.63;;;9.32;;
42832;SDS011;64089;51.478;5.692;2023-11-21T07:33:45;25.25;;;8.98;;
42832;SDS011;64089;51.478;5.692;2023-11-21T07:36:13;26.00;;;9.80;;
42832;SDS011;64089;51.478;5.692;2023-11-21T07:38:39;31.63;;;10.57;;
42832;SDS011;64089;51.478;5.692;2023-11-21T07:41:08;26.67;;;10.05;;
42832;SDS011;64089;51.478;5.692;2023-11-21T07:43:35;25.25;;;9.45;;
42832;SDS011;64089;51.478;5.692;2023-11-21T07:46:01;27.42;;;9.93;;
42832;SDS011;64089;51.478;5.692;2023-11-21T07:48:30;29.05;;;10.05;;
42832;SDS011;64089;51.478;5.692;2023-11-21T07:50:56;31.38;;;11.45;;
42832;SDS011;64089;51.478;5.692;2023-11-21T07:53:25;32.70;;;11.18;;
42832;SDS011;64089;51.478;5.692;2023-11-21T07:55:55;33.20;;;10.68;;
42832;SDS011;64089;51.478;5.692;2023-11-21T07:58:21;24.65;;;10.10;;
42832;SDS011;64089;51.478;5.692;2023-11-21T08:00:46;33.33;;;11.30;;
42832;SDS011;64089;51.478;5.692;2023-11-21T08:03:15;30.20;;;10.40;;
42832;SDS011;64089;51.478;5.692;2023-11-21T08:05:41;27.23;;;10.43;;
42832;SDS011;64089;51.478;5.692;2023-11-21T08:08:07;24.25;;;10.48;;
42832;SDS011;64089;51.478;5.692;2023-11-21T08:10:33;27.33;;;9.82;;
42832;SDS011;64089;51.478;5.692;2023-11-21T08:13:00;25.70;;;9.65;;
42832;SDS011;64089;51.478;5.692;2023-11-21T08:15:26;35.22;;;11.00;;
42832;SDS011;64089;51.478;5.692;2023-11-21T08:17:52;26.65;;;10.13;;
42832;SDS011;64089;51.478;5.692;2023-11-21T08:20:18;30.20;;;10.55;;
42832;SDS011;64089;51.478;5.692;2023-11-21T08:22:43;24.60;;;10.88;;
42832;SDS011;64089;51.478;5.692;2023-11-21T08:25:10;26.73;;;10.48;;
42832;SDS011;64089;51.478;5.692;2023-11-21T08:27:36;25.23;;;11.02;;
42832;SDS011;64089;51.478;5.692;2023-11-21T08:30:05;29.13;;;11.52;;
42832;SDS011;64089;51.478;5.692;2023-11-21T08:32:32;29.45;;;11.40;;
42832;SDS011;64089;51.478;5.692;2023-11-21T08:34:58;25.88;;;10.00;;
42832;SDS011;64089;51.478;5.692;2023-11-21T08:37:25;85.07;;;33.97;;
42832;SDS011;64089;51.478;5.692;2023-11-21T08:39:52;93.53;;;36.58;;
42832;SDS011;64089;51.478;5.692;2023-11-21T08:42:18;112.57;;;46.05;;
42832;SDS011;64089;51.478;5.692;2023-11-21T08:44:44;85.78;;;38.05;;
42832;SDS011;64089;51.478;5.692;2023-11-21T08:47:10;46.22;;;21.80;;
42832;SDS011;64089;51.478;5.692;2023-11-21T08:49:36;32.28;;;13.98;;
42832;SDS011;64089;51.478;5.692;2023-11-21T08:52:03;28.85;;;11.50;;
42832;SDS011;64089;51.478;5.692;2023-11-21T08:54:30;25.60;;;10.25;;
42832;SDS011;64089;51.478;5.692;2023-11-21T08:56:56;24.38;;;10.80;;
42832;SDS011;64089;51.478;5.692;2023-11-21T08:59:23;24.67;;;11.18;;
42832;SDS011;64089;51.478;5.692;2023-11-21T09:01:49;24.00;;;9.25;;
42832;SDS011;64089;51.478;5.692;2023-11-21T09:04:15;23.80;;;9.95;;
42832;SDS011;64089;51.478;5.692;2023-11-21T09:06:40;27.05;;;11.02;;
42832;SDS011;64089;51.478;5.692;2023-11-21T09:09:06;25.73;;;10.93;;
42832;SDS011;64089;51.478;5.692;2023-11-21T09:11:33;19.92;;;9.68;;
42832;SDS011;64089;51.478;5.692;2023-11-21T09:14:02;19.23;;;9.23;;
42832;SDS011;64089;51.478;5.692;2023-11-21T09:16:31;17.25;;;8.77;;
42832;SDS011;64089;51.478;5.692;2023-11-21T09:18:56;21.15;;;10.40;;
42832;SDS011;64089;51.478;5.692;2023-11-21T09:21:22;23.13;;;10.48;;
42832;SDS011;64089;51.478;5.692;2023-11-21T09:23:49;22.92;;;10.05;;
42832;SDS011;64089;51.478;5.692;2023-11-21T09:26:14;21.95;;;9.90;;
42832;SDS011;64089;51.478;5.692;2023-11-21T09:28:41;22.85;;;10.70;;
42832;SDS011;64089;51.478;5.692;2023-11-21T09:31:11;16.73;;;9.57;;
42832;SDS011;64089;51.478;5.692;2023-11-21T09:33:37;21.88;;;9.73;;
42832;SDS011;64089;51.478;5.692;2023-11-21T09:36:03;28.88;;;10.88;;
42832;SDS011;64089;51.478;5.692;2023-11-21T09:38:30;25.38;;;10.05;;
42832;SDS011;64089;51.478;5.692;2023-11-21T09:40:56;22.67;;;11.00;;
42832;SDS011;64089;51.478;5.692;2023-11-21T09:43:23;20.10;;;8.93;;
42832;SDS011;64089;51.478;5.692;2023-11-21T09:45:56;19.77;;;9.55;;
42832;SDS011;64089;51.478;5.692;2023-11-21T09:48:26;22.25;;;9.57;;
42832;SDS011;64089;51.478;5.692;2023-11-21T09:50:51;23.10;;;9.13;;
42832;SDS011;64089;51.478;5.692;2023-11-21T09:53:19;22.60;;;9.15;;
42832;SDS011;64089;51.478;5.692;2023-11-21T09:55:47;45.10;;;19.67;;
42832;SDS011;64089;51.478;5.692;2023-11-21T09:58:16;70.60;;;28.23;;
42832;SDS011;64089;51.478;5.692;2023-11-21T10:00:52;81.82;;;35.03;;
42832;SDS011;64089;51.478;5.692;2023-11-21T10:03:19;73.53;;;30.50;;
42832;SDS011;64089;51.478;5.692;2023-11-21T10:05:44;78.47;;;30.70;;
42832;SDS011;64089;51.478;5.692;2023-11-21T10:08:11;28.52;;;13.27;;
42832;SDS011;64089;51.478;5.692;2023-11-21T10:10:37;23.15;;;10.25;;
42832;SDS011;64089;51.478;5.692;2023-11-21T10:13:13;26.63;;;10.05;;
42832;SDS011;64089;51.478;5.692;2023-11-21T10:15:41;26.27;;;10.18;;
42832;SDS011;64089;51.478;5.692;2023-11-21T10:18:13;27.45;;;10.30;;
42832;SDS011;64089;51.478;5.692;2023-11-21T10:20:40;25.95;;;10.55;;
42832;SDS011;64089;51.478;5.692;2023-11-21T10:23:06;25.50;;;10.68;;
42832;SDS011;64089;51.478;5.692;2023-11-21T10:25:36;29.52;;;11.43;;
42832;SDS011;64089;51.478;5.692;2023-11-21T10:28:02;31.05;;;10.98;;
42832;SDS011;64089;51.478;5.692;2023-11-21T10:30:35;32.80;;;11.00;;
42832;SDS011;64089;51.478;5.692;2023-11-21T10:33:03;23.65;;;10.60;;
42832;SDS011;64089;51.478;5.692;2023-11-21T10:35:48;26.40;;;9.60;;
42832;SDS011;64089;51.478;5.692;2023-11-21T10:38:19;21.60;;;9.75;;
42832;SDS011;64089;51.478;5.692;2023-11-21T10:40:49;29.90;;;10.50;;
42832;SDS011;64089;51.478;5.692;2023-11-21T10:43:16;33.17;;;12.23;;
42832;SDS011;64089;51.478;5.692;2023-11-21T10:45:42;29.40;;;11.10;;
42832;SDS011;64089;51.478;5.692;2023-11-21T10:48:10;32.85;;;12.45;;
42832;SDS011;64089;51.478;5.692;2023-11-21T10:50:42;30.35;;;10.75;;
42832;SDS011;64089;51.478;5.692;2023-11-21T10:53:09;37.92;;;10.85;;
42832;SDS011;64089;51.478;5.692;2023-11-21T10:55:36;33.03;;;11.23;;
42832;SDS011;64089;51.478;5.692;2023-11-21T10:58:03;45.10;;;13.75;;
42832;SDS011;64089;51.478;5.692;2023-11-21T11:00:30;31.05;;;11.48;;
42832;SDS011;64089;51.478;5.692;2023-11-21T11:02:57;39.22;;;12.38;;
42832;SDS011;64089;51.478;5.692;2023-11-21T11:05:24;26.83;;;11.05;;
42832;SDS011;64089;51.478;5.692;2023-11-21T11:07:51;30.95;;;12.00;;
42832;SDS011;64089;51.478;5.692;2023-11-21T11:10:28;29.85;;;10.30;;
42832;SDS011;64089;51.478;5.692;2023-11-21T11:12:57;27.85;;;11.10;;
42832;SDS011;64089;51.478;5.692;2023-11-21T11:15:24;30.25;;;11.82;;
42832;SDS011;64089;51.478;5.692;2023-11-21T11:17:50;37.83;;;12.32;;
42832;SDS011;64089;51.478;5.692;2023-11-21T11:20:16;37.45;;;11.18;;
42832;SDS011;64089;51.478;5.692;2023-11-21T11:25:55;32.38;;;12.18;;
42832;SDS011;64089;51.478;5.692;2023-11-21T11:31:48;30.05;;;10.90;;
42832;SDS011;64089;51.478;5.692;2023-11-21T11:34:30;27.00;;;11.07;;
42832;SDS011;64089;51.478;5.692;2023-11-21T11:37:00;33.40;;;11.65;;
42832;SDS011;64089;51.478;5.692;2023-11-21T11:41:57;30.25;;;10.48;;
42832;SDS011;64089;51.478;5.692;2023-11-21T11:47:27;24.25;;;10.35;;
42832;SDS011;64089;51.478;5.692;2023-11-21T11:50:31;26.67;;;11.20;;
42832;SDS011;64089;51.478;5.692;2023-11-21T11:52:52;22.85;;;10.30;;
42832;SDS011;64089;51.478;5.692;2023-11-21T11:55:23;24.70;;;9.93;;
42832;SDS011;64089;51.478;5.692;2023-11-21T11:57:51;32.40;;;11.73;;
42832;SDS011;64089;51.478;5.692;2023-11-21T12:00:20;38.25;;;13.02;;
42832;SDS011;64089;51.478;5.692;2023-11-21T12:02:53;80.68;;;33.03;;
42832;SDS011;64089;51.478;5.692;2023-11-21T12:05:25;131.00;;;50.72;;
42832;SDS011;64089;51.478;5.692;2023-11-21T12:10:23;28.95;;;11.80;;
42832;SDS011;64089;51.478;5.692;2023-11-21T12:13:02;27.88;;;11.10;;
42832;SDS011;64089;51.478;5.692;2023-11-21T12:15:29;30.08;;;11.65;;
42832;SDS011;64089;51.478;5.692;2023-11-21T12:17:56;24.27;;;10.63;;
42832;SDS011;64089;51.478;5.692;2023-11-21T12:20:26;20.63;;;8.70;;
42832;SDS011;64089;51.478;5.692;2023-11-21T12:22:53;20.83;;;9.30;;
42832;SDS011;64089;51.478;5.692;2023-11-21T12:25:21;30.55;;;10.35;;
42832;SDS011;64089;51.478;5.692;2023-11-21T12:27:48;30.88;;;10.50;;
42832;SDS011;64089;51.478;5.692;2023-11-21T12:30:16;22.38;;;9.60;;
42832;SDS011;64089;51.478;5.692;2023-11-21T12:32:44;21.55;;;10.50;;
42832;SDS011;64089;51.478;5.692;2023-11-21T12:35:12;21.98;;;9.13;;
42832;SDS011;64089;51.478;5.692;2023-11-21T12:37:39;21.77;;;9.25;;
42832;SDS011;64089;51.478;5.692;2023-11-21T12:40:09;27.67;;;10.25;;
42832;SDS011;64089;51.478;5.692;2023-11-21T12:42:43;24.83;;;10.00;;
42832;SDS011;64089;51.478;5.692;2023-11-21T12:47:44;22.20;;;10.00;;
42832;SDS011;64089;51.478;5.692;2023-11-21T12:50:15;25.75;;;11.05;;
42832;SDS011;64089;51.478;5.692;2023-11-21T12:52:53;27.75;;;10.82;;
42832;SDS011;64089;51.478;5.692;2023-11-21T12:55:23;24.30;;;10.80;;
42832;SDS011;64089;51.478;5.692;2023-11-21T12:57:51;30.92;;;10.65;;
42832;SDS011;64089;51.478;5.692;2023-11-21T13:00:33;30.63;;;11.10;;
42832;SDS011;64089;51.478;5.692;2023-11-21T13:03:04;27.65;;;11.40;;
42832;SDS011;64089;51.478;5.692;2023-11-21T13:05:35;25.88;;;9.45;;
42832;SDS011;64089;51.478;5.692;2023-11-21T13:08:09;27.98;;;10.50;;
42832;SDS011;64089;51.478;5.692;2023-11-21T13:10:38;31.08;;;11.27;;
42832;SDS011;64089;51.478;5.692;2023-11-21T13:13:09;28.10;;;11.32;;
42832;SDS011;64089;51.478;5.692;2023-11-21T13:15:46;26.90;;;10.63;;
42832;SDS011;64089;51.478;5.692;2023-11-21T13:18:15;26.92;;;10.73;;
42832;SDS011;64089;51.478;5.692;2023-11-21T13:20:42;27.42;;;10.50;;
42832;SDS011;64089;51.478;5.692;2023-11-21T13:23:09;27.23;;;10.27;;
42832;SDS011;64089;51.478;5.692;2023-11-21T13:25:37;23.23;;;9.38;;
42832;SDS011;64089;51.478;5.692;2023-11-21T13:28:05;25.90;;;9.60;;
42832;SDS011;64089;51.478;5.692;2023-11-21T13:30:32;24.02;;;9.45;;
42832;SDS011;64089;51.478;5.692;2023-11-21T13:33:01;23.75;;;9.50;;
42832;SDS011;64089;51.478;5.692;2023-11-21T13:35:30;23.83;;;9.65;;
42832;SDS011;64089;51.478;5.692;2023-11-21T13:38:06;28.05;;;11.40;;
42832;SDS011;64089;51.478;5.692;2023-11-21T13:40:34;33.10;;;10.55;;
42832;SDS011;64089;51.478;5.692;2023-11-21T13:43:07;29.27;;;10.95;;
42832;SDS011;64089;51.478;5.692;2023-11-21T13:45:38;28.42;;;11.68;;
42832;SDS011;64089;51.478;5.692;2023-11-21T13:48:05;26.58;;;10.65;;
42832;SDS011;64089;51.478;5.692;2023-11-21T13:50:35;26.90;;;10.45;;
42832;SDS011;64089;51.478;5.692;2023-11-21T13:53:02;28.48;;;10.73;;
42832;SDS011;64089;51.478;5.692;2023-11-21T13:55:43;33.33;;;11.77;;
42832;SDS011;64089;51.478;5.692;2023-11-21T13:58:10;28.85;;;11.05;;
42832;SDS011;64089;51.478;5.692;2023-11-21T14:03:14;42.83;;;12.05;;
42832;SDS011;64089;51.478;5.692;2023-11-21T14:05:47;40.95;;;12.30;;
42832;SDS011;64089;51.478;5.692;2023-11-21T14:08:17;35.97;;;10.98;;
42832;SDS011;64089;51.478;5.692;2023-11-21T14:10:48;29.58;;;11.27;;
42832;SDS011;64089;51.478;5.692;2023-11-21T14:13:16;35.50;;;12.90;;
42832;SDS011;64089;51.478;5.692;2023-11-21T14:15:42;26.10;;;11.50;;
42832;SDS011;64089;51.478;5.692;2023-11-21T14:18:10;27.75;;;10.85;;
42832;SDS011;64089;51.478;5.692;2023-11-21T14:20:39;28.95;;;11.18;;
42832;SDS011;64089;51.478;5.692;2023-11-21T14:23:08;28.90;;;11.63;;
42832;SDS011;64089;51.478;5.692;2023-11-21T14:25:35;33.92;;;11.73;;
42832;SDS011;64089;51.478;5.692;2023-11-21T14:28:05;39.90;;;11.05;;
42832;SDS011;64089;51.478;5.692;2023-11-21T14:30:31;26.40;;;11.15;;
42832;SDS011;64089;51.478;5.692;2023-11-21T14:33:00;25.88;;;10.35;;
42832;SDS011;64089;51.478;5.692;2023-11-21T14:35:27;29.95;;;10.80;;
42832;SDS011;64089;51.478;5.692;2023-11-21T14:37:55;28.88;;;11.50;;
42832;SDS011;64089;51.478;5.692;2023-11-21T14:40:20;33.05;;;10.68;;
42832;SDS011;64089;51.478;5.692;2023-11-21T14:42:49;24.65;;;9.05;;
42832;SDS011;64089;51.478;5.692;2023-11-21T14:45:18;22.45;;;9.55;;
42832;SDS011;64089;51.478;5.692;2023-11-21T14:47:45;30.45;;;10.65;;
42832;SDS011;64089;51.478;5.692;2023-11-21T14:50:20;17.88;;;8.90;;